sensor_id;sensor_type;location;lat;lon;timestamp;P1;durP1;ratioP1;P2;durP2;ratioP2
16354;SDS011;8287;51.644;8.494;2022-11-04T00:01:26;50.42;;;48.13;;
16354;SDS011;8287;51.644;8.494;2022-11-04T00:03:52;66.57;;;63.72;;
16354;SDS011;8287;51.644;8.494;2022-11-04T00:06:19;66.55;;;63.88;;
16354;SDS011;8287;51.644;8.494;2022-11-04T00:08:48;65.35;;;62.72;;
16354;SDS011;8287;51.644;8.494;2022-11-04T00:11:15;65.88;;;63.25;;
16354;SDS011;8287;51.644;8.494;2022-11-04T00:14:06;61.85;;;59.38;;
16354;SDS011;8287;51.644;8.494;2022-11-04T00:16:33;67.53;;;64.82;;
16354;SDS011;8287;51.644;8.494;2022-11-04T00:19:18;40.35;;;38.75;;
16354;SDS011;8287;51.644;8.494;2022-11-04T00:21:44;67.13;;;64.43;;
16354;SDS011;8287;51.644;8.494;2022-11-04T00:24:30;64.45;;;61.67;;
16354;SDS011;8287;51.644;8.494;2022-11-04T00:27:15;121.03;;;116.03;;
16354;SDS011;8287;51.644;8.494;2022-11-04T00:30:00;123.65;;;118.68;;
16354;SDS011;8287;51.644;8.494;2022-11-04T00:32:28;46.92;;;45.05;;
16354;SDS011;8287;51.644;8.494;2022-11-04T00:35:14;53.40;;;51.25;;
16354;SDS011;8287;51.644;8.494;2022-11-04T00:37:41;89.90;;;86.20;;
16354;SDS011;8287;51.644;8.494;2022-11-04T00:40:11;70.82;;;67.78;;
16354;SDS011;8287;51.644;8.494;2022-11-04T00:42:39;61.65;;;59.17;;
16354;SDS011;8287;51.644;8.494;2022-11-04T00:45:09;44.83;;;43.00;;
16354;SDS011;8287;51.644;8.494;2022-11-04T00:47:36;49.03;;;47.03;;
16354;SDS011;8287;51.644;8.494;2022-11-04T00:50:02;35.53;;;34.08;;
16354;SDS011;8287;51.644;8.494;2022-11-04T00:52:30;57.35;;;55.05;;
16354;SDS011;8287;51.644;8.494;2022-11-04T00:54:56;86.85;;;83.43;;
16354;SDS011;8287;51.644;8.494;2022-11-04T00:57:24;70.85;;;68.05;;
16354;SDS011;8287;51.644;8.494;2022-11-04T00:59:51;76.15;;;72.93;;
16354;SDS011;8287;51.644;8.494;2022-11-04T01:02:17;80.28;;;76.45;;
16354;SDS011;8287;51.644;8.494;2022-11-04T01:04:45;71.10;;;68.20;;
16354;SDS011;8287;51.644;8.494;2022-11-04T01:07:11;79.28;;;76.00;;
16354;SDS011;8287;51.644;8.494;2022-11-04T01:09:38;62.90;;;60.38;;
16354;SDS011;8287;51.644;8.494;2022-11-04T01:12:05;26.50;;;25.45;;
16354;SDS011;8287;51.644;8.494;2022-11-04T01:14:33;43.22;;;41.25;;
16354;SDS011;8287;51.644;8.494;2022-11-04T01:16:59;38.85;;;37.28;;
16354;SDS011;8287;51.644;8.494;2022-11-04T01:19:26;42.35;;;40.67;;
16354;SDS011;8287;51.644;8.494;2022-11-04T01:21:53;53.17;;;51.00;;
16354;SDS011;8287;51.644;8.494;2022-11-04T01:24:19;44.05;;;42.25;;
16354;SDS011;8287;51.644;8.494;2022-11-04T01:26:46;53.22;;;51.10;;
16354;SDS011;8287;51.644;8.494;2022-11-04T01:29:12;46.95;;;44.67;;
16354;SDS011;8287;51.644;8.494;2022-11-04T01:31:40;57.85;;;55.58;;
16354;SDS011;8287;51.644;8.494;2022-11-04T01:34:07;49.88;;;47.88;;
16354;SDS011;8287;51.644;8.494;2022-11-04T01:36:34;69.15;;;66.40;;
16354;SDS011;8287;51.644;8.494;2022-11-04T01:39:01;59.75;;;57.35;;
16354;SDS011;8287;51.644;8.494;2022-11-04T01:41:29;60.67;;;58.22;;
16354;SDS011;8287;51.644;8.494;2022-11-04T01:43:57;50.83;;;48.63;;
16354;SDS011;8287;51.644;8.494;2022-11-04T01:46:27;54.15;;;51.97;;
16354;SDS011;8287;51.644;8.494;2022-11-04T01:49:05;50.50;;;48.25;;
16354;SDS011;8287;51.644;8.494;2022-11-04T01:51:43;46.22;;;44.17;;
16354;SDS011;8287;51.644;8.494;2022-11-04T01:54:11;57.80;;;55.42;;
16354;SDS011;8287;51.644;8.494;2022-11-04T01:56:39;43.70;;;41.95;;
16354;SDS011;8287;51.644;8.494;2022-11-04T01:59:09;45.72;;;43.85;;
16354;SDS011;8287;51.644;8.494;2022-11-04T02:01:40;42.75;;;41.05;;
16354;SDS011;8287;51.644;8.494;2022-11-04T02:04:09;51.13;;;49.08;;
16354;SDS011;8287;51.644;8.494;2022-11-04T02:06:51;42.35;;;40.67;;
16354;SDS011;8287;51.644;8.494;2022-11-04T02:09:19;35.05;;;33.50;;
16354;SDS011;8287;51.644;8.494;2022-11-04T02:11:48;30.20;;;29.02;;
16354;SDS011;8287;51.644;8.494;2022-11-04T02:14:33;21.33;;;20.38;;
16354;SDS011;8287;51.644;8.494;2022-11-04T02:17:03;27.90;;;26.80;;
16354;SDS011;8287;51.644;8.494;2022-11-04T02:19:45;36.05;;;34.63;;
16354;SDS011;8287;51.644;8.494;2022-11-04T02:22:28;17.35;;;16.65;;
16354;SDS011;8287;51.644;8.494;2022-11-04T02:25:15;32.33;;;30.98;;
16354;SDS011;8287;51.644;8.494;2022-11-04T02:28:11;34.13;;;32.55;;
16354;SDS011;8287;51.644;8.494;2022-11-04T02:30:53;34.10;;;32.70;;
16354;SDS011;8287;51.644;8.494;2022-11-04T02:33:28;38.67;;;37.15;;
16354;SDS011;8287;51.644;8.494;2022-11-04T02:36:02;32.15;;;30.85;;
16354;SDS011;8287;51.644;8.494;2022-11-04T02:38:34;31.27;;;30.05;;
16354;SDS011;8287;51.644;8.494;2022-11-04T02:41:09;27.17;;;26.08;;
16354;SDS011;8287;51.644;8.494;2022-11-04T02:43:46;17.00;;;16.30;;
16354;SDS011;8287;51.644;8.494;2022-11-04T02:46:19;21.95;;;21.10;;
16354;SDS011;8287;51.644;8.494;2022-11-04T02:48:52;21.35;;;20.55;;
16354;SDS011;8287;51.644;8.494;2022-11-04T02:51:25;35.50;;;33.95;;
16354;SDS011;8287;51.644;8.494;2022-11-04T02:53:59;43.53;;;41.75;;
16354;SDS011;8287;51.644;8.494;2022-11-04T02:56:31;30.27;;;29.05;;
16354;SDS011;8287;51.644;8.494;2022-11-04T02:59:02;28.85;;;27.65;;
16354;SDS011;8287;51.644;8.494;2022-11-04T03:01:34;39.13;;;37.55;;
16354;SDS011;8287;51.644;8.494;2022-11-04T03:04:06;47.80;;;45.55;;
16354;SDS011;8287;51.644;8.494;2022-11-04T03:06:36;58.95;;;56.60;;
16354;SDS011;8287;51.644;8.494;2022-11-04T03:09:05;47.85;;;45.85;;
16354;SDS011;8287;51.644;8.494;2022-11-04T03:11:35;51.28;;;49.15;;
16354;SDS011;8287;51.644;8.494;2022-11-04T03:14:06;48.63;;;46.63;;
16354;SDS011;8287;51.644;8.494;2022-11-04T03:16:37;36.20;;;34.65;;
16354;SDS011;8287;51.644;8.494;2022-11-04T03:19:06;38.05;;;36.42;;
16354;SDS011;8287;51.644;8.494;2022-11-04T03:21:40;39.10;;;37.50;;
16354;SDS011;8287;51.644;8.494;2022-11-04T03:24:15;39.15;;;37.53;;
16354;SDS011;8287;51.644;8.494;2022-11-04T03:26:43;32.10;;;30.80;;
16354;SDS011;8287;51.644;8.494;2022-11-04T03:29:20;46.42;;;44.45;;
16354;SDS011;8287;51.644;8.494;2022-11-04T03:31:56;45.42;;;43.55;;
16354;SDS011;8287;51.644;8.494;2022-11-04T03:34:30;51.63;;;49.47;;
16354;SDS011;8287;51.644;8.494;2022-11-04T03:36:57;36.33;;;34.78;;
16354;SDS011;8287;51.644;8.494;2022-11-04T03:39:24;35.53;;;34.03;;
16354;SDS011;8287;51.644;8.494;2022-11-04T03:41:51;31.08;;;29.80;;
16354;SDS011;8287;51.644;8.494;2022-11-04T03:44:22;53.78;;;51.35;;
16354;SDS011;8287;51.644;8.494;2022-11-04T03:46:49;48.65;;;46.60;;
16354;SDS011;8287;51.644;8.494;2022-11-04T03:49:18;51.83;;;49.60;;
16354;SDS011;8287;51.644;8.494;2022-11-04T03:51:46;67.75;;;64.93;;
16354;SDS011;8287;51.644;8.494;2022-11-04T03:54:13;33.58;;;32.03;;
16354;SDS011;8287;51.644;8.494;2022-11-04T03:56:48;57.28;;;54.83;;
16354;SDS011;8287;51.644;8.494;2022-11-04T03:59:46;50.67;;;48.40;;
16354;SDS011;8287;51.644;8.494;2022-11-04T04:02:28;29.42;;;28.17;;
16354;SDS011;8287;51.644;8.494;2022-11-04T04:05:07;48.92;;;46.72;;
16354;SDS011;8287;51.644;8.494;2022-11-04T04:07:40;43.92;;;41.90;;
16354;SDS011;8287;51.644;8.494;2022-11-04T04:10:12;41.53;;;39.70;;
16354;SDS011;8287;51.644;8.494;2022-11-04T04:13:00;56.13;;;53.70;;
16354;SDS011;8287;51.644;8.494;2022-11-04T04:15:34;46.58;;;44.55;;
16354;SDS011;8287;51.644;8.494;2022-11-04T04:18:08;44.35;;;42.33;;
16354;SDS011;8287;51.644;8.494;2022-11-04T04:20:40;48.38;;;46.38;;
16354;SDS011;8287;51.644;8.494;2022-11-04T04:23:12;63.45;;;60.85;;
16354;SDS011;8287;51.644;8.494;2022-11-04T04:26:01;42.05;;;40.35;;
16354;SDS011;8287;51.644;8.494;2022-11-04T04:28:47;56.55;;;53.88;;
16354;SDS011;8287;51.644;8.494;2022-11-04T04:31:17;40.30;;;38.60;;
16354;SDS011;8287;51.644;8.494;2022-11-04T04:33:59;40.42;;;38.67;;
16354;SDS011;8287;51.644;8.494;2022-11-04T04:36:27;37.63;;;35.83;;
16354;SDS011;8287;51.644;8.494;2022-11-04T04:38:56;41.75;;;40.00;;
16354;SDS011;8287;51.644;8.494;2022-11-04T04:41:45;42.10;;;40.17;;
16354;SDS011;8287;51.644;8.494;2022-11-04T04:44:31;36.65;;;35.00;;
16354;SDS011;8287;51.644;8.494;2022-11-04T04:47:18;39.92;;;38.25;;
16354;SDS011;8287;51.644;8.494;2022-11-04T04:49:48;29.67;;;28.27;;
16354;SDS011;8287;51.644;8.494;2022-11-04T04:52:16;33.05;;;31.58;;
16354;SDS011;8287;51.644;8.494;2022-11-04T04:54:43;35.20;;;33.67;;
16354;SDS011;8287;51.644;8.494;2022-11-04T04:57:10;33.70;;;32.13;;
16354;SDS011;8287;51.644;8.494;2022-11-04T04:59:37;33.78;;;31.92;;
16354;SDS011;8287;51.644;8.494;2022-11-04T05:02:03;36.67;;;35.10;;
16354;SDS011;8287;51.644;8.494;2022-11-04T05:04:30;40.42;;;38.65;;
16354;SDS011;8287;51.644;8.494;2022-11-04T05:06:57;29.52;;;28.05;;
16354;SDS011;8287;51.644;8.494;2022-11-04T05:09:25;34.45;;;32.85;;
16354;SDS011;8287;51.644;8.494;2022-11-04T05:11:51;37.55;;;35.72;;
16354;SDS011;8287;51.644;8.494;2022-11-04T05:14:18;45.08;;;42.75;;
16354;SDS011;8287;51.644;8.494;2022-11-04T05:16:45;39.63;;;37.88;;
16354;SDS011;8287;51.644;8.494;2022-11-04T05:19:11;42.15;;;40.05;;
16354;SDS011;8287;51.644;8.494;2022-11-04T05:21:38;28.27;;;26.80;;
16354;SDS011;8287;51.644;8.494;2022-11-04T05:24:05;46.08;;;43.85;;
16354;SDS011;8287;51.644;8.494;2022-11-04T05:26:33;35.65;;;34.10;;
16354;SDS011;8287;51.644;8.494;2022-11-04T05:28:59;44.60;;;42.63;;
16354;SDS011;8287;51.644;8.494;2022-11-04T05:31:26;46.22;;;44.20;;
16354;SDS011;8287;51.644;8.494;2022-11-04T05:33:54;36.67;;;35.17;;
16354;SDS011;8287;51.644;8.494;2022-11-04T05:36:21;40.72;;;38.92;;
16354;SDS011;8287;51.644;8.494;2022-11-04T05:38:49;40.75;;;38.70;;
16354;SDS011;8287;51.644;8.494;2022-11-04T05:41:16;37.03;;;35.30;;
16354;SDS011;8287;51.644;8.494;2022-11-04T05:43:51;49.53;;;47.40;;
16354;SDS011;8287;51.644;8.494;2022-11-04T05:46:18;34.30;;;32.42;;
16354;SDS011;8287;51.644;8.494;2022-11-04T05:48:44;35.58;;;33.97;;
16354;SDS011;8287;51.644;8.494;2022-11-04T05:51:11;40.63;;;38.63;;
16354;SDS011;8287;51.644;8.494;2022-11-04T05:53:39;44.55;;;42.42;;
16354;SDS011;8287;51.644;8.494;2022-11-04T05:56:05;49.83;;;47.60;;
16354;SDS011;8287;51.644;8.494;2022-11-04T05:58:32;43.63;;;41.38;;
16354;SDS011;8287;51.644;8.494;2022-11-04T06:01:11;64.32;;;61.55;;
16354;SDS011;8287;51.644;8.494;2022-11-04T06:03:39;54.92;;;52.17;;
16354;SDS011;8287;51.644;8.494;2022-11-04T06:06:05;40.25;;;38.30;;
16354;SDS011;8287;51.644;8.494;2022-11-04T06:08:32;38.10;;;35.90;;
16354;SDS011;8287;51.644;8.494;2022-11-04T06:10:59;54.72;;;52.35;;
16354;SDS011;8287;51.644;8.494;2022-11-04T06:13:26;38.55;;;36.78;;
16354;SDS011;8287;51.644;8.494;2022-11-04T06:15:52;51.83;;;49.30;;
16354;SDS011;8287;51.644;8.494;2022-11-04T06:18:20;48.22;;;45.95;;
16354;SDS011;8287;51.644;8.494;2022-11-04T06:20:47;52.22;;;49.85;;
16354;SDS011;8287;51.644;8.494;2022-11-04T06:23:13;58.42;;;55.25;;
16354;SDS011;8287;51.644;8.494;2022-11-04T06:25:40;39.65;;;37.47;;
16354;SDS011;8287;51.644;8.494;2022-11-04T06:28:07;51.03;;;48.47;;
16354;SDS011;8287;51.644;8.494;2022-11-04T06:30:33;46.15;;;43.95;;
16354;SDS011;8287;51.644;8.494;2022-11-04T06:33:00;55.65;;;53.28;;
16354;SDS011;8287;51.644;8.494;2022-11-04T06:35:28;33.80;;;32.30;;
16354;SDS011;8287;51.644;8.494;2022-11-04T06:37:54;54.08;;;51.78;;
16354;SDS011;8287;51.644;8.494;2022-11-04T06:40:21;39.90;;;38.05;;
16354;SDS011;8287;51.644;8.494;2022-11-04T06:42:48;36.53;;;34.90;;
16354;SDS011;8287;51.644;8.494;2022-11-04T06:45:14;63.58;;;60.90;;
16354;SDS011;8287;51.644;8.494;2022-11-04T06:47:41;44.10;;;42.20;;
16354;SDS011;8287;51.644;8.494;2022-11-04T06:50:08;35.58;;;34.00;;
16354;SDS011;8287;51.644;8.494;2022-11-04T06:52:37;34.72;;;33.10;;
16354;SDS011;8287;51.644;8.494;2022-11-04T06:55:04;24.67;;;23.48;;
16354;SDS011;8287;51.644;8.494;2022-11-04T06:57:32;29.42;;;28.02;;
16354;SDS011;8287;51.644;8.494;2022-11-04T06:59:59;50.50;;;48.13;;
16354;SDS011;8287;51.644;8.494;2022-11-04T07:02:25;31.20;;;29.67;;
16354;SDS011;8287;51.644;8.494;2022-11-04T07:04:52;45.83;;;43.92;;
16354;SDS011;8287;51.644;8.494;2022-11-04T07:07:18;33.28;;;31.73;;
16354;SDS011;8287;51.644;8.494;2022-11-04T07:09:46;44.83;;;42.78;;
16354;SDS011;8287;51.644;8.494;2022-11-04T07:12:13;33.10;;;31.65;;
16354;SDS011;8287;51.644;8.494;2022-11-04T07:14:40;39.33;;;37.50;;
16354;SDS011;8287;51.644;8.494;2022-11-04T07:17:06;29.48;;;27.95;;
16354;SDS011;8287;51.644;8.494;2022-11-04T07:19:33;36.67;;;35.13;;
16354;SDS011;8287;51.644;8.494;2022-11-04T07:21:59;37.17;;;35.55;;
16354;SDS011;8287;51.644;8.494;2022-11-04T07:24:26;33.58;;;31.92;;
16354;SDS011;8287;51.644;8.494;2022-11-04T07:26:54;44.35;;;42.22;;
16354;SDS011;8287;51.644;8.494;2022-11-04T07:29:21;36.65;;;34.80;;
16354;SDS011;8287;51.644;8.494;2022-11-04T07:31:49;30.45;;;29.00;;
16354;SDS011;8287;51.644;8.494;2022-11-04T07:34:16;31.75;;;30.05;;
16354;SDS011;8287;51.644;8.494;2022-11-04T07:36:42;31.60;;;30.02;;
16354;SDS011;8287;51.644;8.494;2022-11-04T07:39:09;35.30;;;33.80;;
16354;SDS011;8287;51.644;8.494;2022-11-04T07:41:36;33.10;;;31.33;;
16354;SDS011;8287;51.644;8.494;2022-11-04T07:44:05;30.70;;;29.23;;
16354;SDS011;8287;51.644;8.494;2022-11-04T07:46:32;36.67;;;34.63;;
16354;SDS011;8287;51.644;8.494;2022-11-04T07:48:58;30.27;;;28.95;;
16354;SDS011;8287;51.644;8.494;2022-11-04T07:51:25;27.60;;;26.27;;
16354;SDS011;8287;51.644;8.494;2022-11-04T07:53:53;32.55;;;31.10;;
16354;SDS011;8287;51.644;8.494;2022-11-04T07:56:20;29.95;;;28.65;;
16354;SDS011;8287;51.644;8.494;2022-11-04T07:58:48;34.22;;;32.25;;
16354;SDS011;8287;51.644;8.494;2022-11-04T08:01:16;27.98;;;26.77;;
16354;SDS011;8287;51.644;8.494;2022-11-04T08:03:44;24.77;;;23.27;;
16354;SDS011;8287;51.644;8.494;2022-11-04T08:06:12;23.48;;;22.17;;
16354;SDS011;8287;51.644;8.494;2022-11-04T08:08:40;21.38;;;20.40;;
16354;SDS011;8287;51.644;8.494;2022-11-04T08:11:08;29.30;;;27.50;;
16354;SDS011;8287;51.644;8.494;2022-11-04T08:13:37;22.75;;;21.55;;
16354;SDS011;8287;51.644;8.494;2022-11-04T08:16:05;24.75;;;23.65;;
16354;SDS011;8287;51.644;8.494;2022-11-04T08:18:35;20.83;;;19.52;;
16354;SDS011;8287;51.644;8.494;2022-11-04T08:21:02;24.25;;;22.95;;
16354;SDS011;8287;51.644;8.494;2022-11-04T08:23:29;26.02;;;24.38;;
16354;SDS011;8287;51.644;8.494;2022-11-04T08:25:56;25.83;;;23.92;;
16354;SDS011;8287;51.644;8.494;2022-11-04T08:28:24;25.42;;;24.00;;
16354;SDS011;8287;51.644;8.494;2022-11-04T08:30:51;22.58;;;21.27;;
16354;SDS011;8287;51.644;8.494;2022-11-04T08:33:19;26.35;;;24.95;;
16354;SDS011;8287;51.644;8.494;2022-11-04T08:35:47;31.15;;;29.65;;
16354;SDS011;8287;51.644;8.494;2022-11-04T08:38:13;29.05;;;27.27;;
16354;SDS011;8287;51.644;8.494;2022-11-04T08:40:40;20.90;;;19.80;;
16354;SDS011;8287;51.644;8.494;2022-11-04T08:43:07;22.73;;;21.63;;
16354;SDS011;8287;51.644;8.494;2022-11-04T08:45:37;29.30;;;27.55;;
16354;SDS011;8287;51.644;8.494;2022-11-04T08:48:04;28.60;;;27.00;;
16354;SDS011;8287;51.644;8.494;2022-11-04T08:50:31;29.83;;;28.38;;
16354;SDS011;8287;51.644;8.494;2022-11-04T08:52:59;26.70;;;25.20;;
16354;SDS011;8287;51.644;8.494;2022-11-04T08:55:27;24.15;;;23.10;;
16354;SDS011;8287;51.644;8.494;2022-11-04T08:57:54;24.95;;;23.60;;
16354;SDS011;8287;51.644;8.494;2022-11-04T09:00:20;25.90;;;24.73;;
16354;SDS011;8287;51.644;8.494;2022-11-04T09:02:47;24.05;;;22.83;;
16354;SDS011;8287;51.644;8.494;2022-11-04T09:05:14;21.70;;;20.77;;
16354;SDS011;8287;51.644;8.494;2022-11-04T09:07:40;23.60;;;22.48;;
16354;SDS011;8287;51.644;8.494;2022-11-04T09:10:09;27.33;;;26.13;;
16354;SDS011;8287;51.644;8.494;2022-11-04T09:12:36;24.55;;;23.35;;
16354;SDS011;8287;51.644;8.494;2022-11-04T09:15:03;22.17;;;21.17;;
16354;SDS011;8287;51.644;8.494;2022-11-04T09:17:30;23.30;;;22.17;;
16354;SDS011;8287;51.644;8.494;2022-11-04T09:19:57;27.60;;;26.30;;
16354;SDS011;8287;51.644;8.494;2022-11-04T09:22:24;18.63;;;17.60;;
16354;SDS011;8287;51.644;8.494;2022-11-04T09:24:50;25.38;;;24.05;;
16354;SDS011;8287;51.644;8.494;2022-11-04T09:27:18;26.95;;;25.65;;
16354;SDS011;8287;51.644;8.494;2022-11-04T09:29:45;24.52;;;23.42;;
16354;SDS011;8287;51.644;8.494;2022-11-04T09:32:11;23.98;;;22.77;;
16354;SDS011;8287;51.644;8.494;2022-11-04T09:34:38;36.30;;;33.75;;
16354;SDS011;8287;51.644;8.494;2022-11-04T09:37:05;20.33;;;19.00;;
16354;SDS011;8287;51.644;8.494;2022-11-04T09:39:31;21.98;;;20.98;;
16354;SDS011;8287;51.644;8.494;2022-11-04T09:42:00;30.80;;;28.73;;
16354;SDS011;8287;51.644;8.494;2022-11-04T09:44:45;22.52;;;21.42;;
16354;SDS011;8287;51.644;8.494;2022-11-04T09:47:15;26.20;;;25.00;;
16354;SDS011;8287;51.644;8.494;2022-11-04T09:49:43;25.45;;;24.05;;
16354;SDS011;8287;51.644;8.494;2022-11-04T09:52:14;33.65;;;32.15;;
16354;SDS011;8287;51.644;8.494;2022-11-04T09:54:47;24.58;;;23.25;;
16354;SDS011;8287;51.644;8.494;2022-11-04T09:57:19;25.10;;;23.90;;
16354;SDS011;8287;51.644;8.494;2022-11-04T09:59:47;25.08;;;23.73;;
16354;SDS011;8287;51.644;8.494;2022-11-04T10:02:21;24.13;;;23.13;;
16354;SDS011;8287;51.644;8.494;2022-11-04T10:04:58;25.73;;;24.35;;
16354;SDS011;8287;51.644;8.494;2022-11-04T10:07:39;27.65;;;26.35;;
16354;SDS011;8287;51.644;8.494;2022-11-04T10:10:20;26.33;;;24.48;;
16354;SDS011;8287;51.644;8.494;2022-11-04T10:13:01;28.10;;;26.48;;
16354;SDS011;8287;51.644;8.494;2022-11-04T10:15:41;27.02;;;25.33;;
16354;SDS011;8287;51.644;8.494;2022-11-04T10:18:32;27.90;;;26.45;;
16354;SDS011;8287;51.644;8.494;2022-11-04T10:21:14;27.55;;;25.80;;
16354;SDS011;8287;51.644;8.494;2022-11-04T10:23:55;27.17;;;25.92;;
16354;SDS011;8287;51.644;8.494;2022-11-04T10:26:33;30.80;;;29.45;;
16354;SDS011;8287;51.644;8.494;2022-11-04T10:29:09;28.42;;;27.05;;
16354;SDS011;8287;51.644;8.494;2022-11-04T10:31:42;26.73;;;25.25;;
16354;SDS011;8287;51.644;8.494;2022-11-04T10:34:11;24.05;;;22.77;;
16354;SDS011;8287;51.644;8.494;2022-11-04T10:36:46;25.48;;;24.35;;
16354;SDS011;8287;51.644;8.494;2022-11-04T10:39:14;25.65;;;24.33;;
16354;SDS011;8287;51.644;8.494;2022-11-04T10:41:46;29.10;;;27.60;;
16354;SDS011;8287;51.644;8.494;2022-11-04T10:44:13;33.10;;;31.35;;
16354;SDS011;8287;51.644;8.494;2022-11-04T10:46:48;28.48;;;27.23;;
16354;SDS011;8287;51.644;8.494;2022-11-04T10:49:28;24.35;;;22.92;;
16354;SDS011;8287;51.644;8.494;2022-11-04T10:52:05;26.13;;;24.83;;
16354;SDS011;8287;51.644;8.494;2022-11-04T10:54:35;25.17;;;23.98;;
16354;SDS011;8287;51.644;8.494;2022-11-04T10:57:05;26.92;;;25.63;;
16354;SDS011;8287;51.644;8.494;2022-11-04T10:59:33;27.05;;;25.52;;
16354;SDS011;8287;51.644;8.494;2022-11-04T11:02:09;23.40;;;22.15;;
16354;SDS011;8287;51.644;8.494;2022-11-04T11:04:36;26.48;;;25.10;;
16354;SDS011;8287;51.644;8.494;2022-11-04T11:07:06;25.85;;;24.48;;
16354;SDS011;8287;51.644;8.494;2022-11-04T11:09:35;27.88;;;26.40;;
16354;SDS011;8287;51.644;8.494;2022-11-04T11:12:16;26.13;;;24.40;;
16354;SDS011;8287;51.644;8.494;2022-11-04T11:14:48;24.35;;;23.13;;
16354;SDS011;8287;51.644;8.494;2022-11-04T11:17:20;26.95;;;25.58;;
16354;SDS011;8287;51.644;8.494;2022-11-04T11:19:52;27.75;;;26.15;;
16354;SDS011;8287;51.644;8.494;2022-11-04T11:22:27;26.48;;;25.08;;
16354;SDS011;8287;51.644;8.494;2022-11-04T11:25:11;23.88;;;22.67;;
16354;SDS011;8287;51.644;8.494;2022-11-04T11:27:40;25.17;;;23.95;;
16354;SDS011;8287;51.644;8.494;2022-11-04T11:30:20;23.30;;;22.15;;
16354;SDS011;8287;51.644;8.494;2022-11-04T11:32:51;27.00;;;25.35;;
16354;SDS011;8287;51.644;8.494;2022-11-04T11:35:22;27.75;;;25.88;;
16354;SDS011;8287;51.644;8.494;2022-11-04T11:37:54;29.20;;;27.70;;
16354;SDS011;8287;51.644;8.494;2022-11-04T11:40:22;26.15;;;24.95;;
16354;SDS011;8287;51.644;8.494;2022-11-04T11:42:51;26.35;;;24.98;;
16354;SDS011;8287;51.644;8.494;2022-11-04T11:45:18;24.77;;;23.42;;
16354;SDS011;8287;51.644;8.494;2022-11-04T11:47:48;26.58;;;25.48;;
16354;SDS011;8287;51.644;8.494;2022-11-04T11:50:21;26.65;;;24.80;;
16354;SDS011;8287;51.644;8.494;2022-11-04T11:53:06;24.50;;;22.75;;
16354;SDS011;8287;51.644;8.494;2022-11-04T11:55:40;26.25;;;24.73;;
16354;SDS011;8287;51.644;8.494;2022-11-04T11:58:10;26.58;;;25.23;;
16354;SDS011;8287;51.644;8.494;2022-11-04T12:00:43;26.27;;;24.75;;
16354;SDS011;8287;51.644;8.494;2022-11-04T12:03:15;29.00;;;26.83;;
16354;SDS011;8287;51.644;8.494;2022-11-04T12:05:53;27.13;;;25.17;;
16354;SDS011;8287;51.644;8.494;2022-11-04T12:08:43;28.60;;;26.35;;
16354;SDS011;8287;51.644;8.494;2022-11-04T12:11:16;27.10;;;25.80;;
16354;SDS011;8287;51.644;8.494;2022-11-04T12:13:53;27.77;;;26.42;;
16354;SDS011;8287;51.644;8.494;2022-11-04T12:16:25;30.00;;;28.25;;
16354;SDS011;8287;51.644;8.494;2022-11-04T12:21:54;27.92;;;26.02;;
16354;SDS011;8287;51.644;8.494;2022-11-04T12:24:27;28.90;;;27.40;;
16354;SDS011;8287;51.644;8.494;2022-11-04T12:27:05;26.83;;;24.98;;
16354;SDS011;8287;51.644;8.494;2022-11-04T12:29:51;27.65;;;26.23;;
16354;SDS011;8287;51.644;8.494;2022-11-04T12:32:29;29.27;;;27.50;;
16354;SDS011;8287;51.644;8.494;2022-11-04T12:35:09;30.20;;;28.67;;
16354;SDS011;8287;51.644;8.494;2022-11-04T12:37:49;26.08;;;24.90;;
16354;SDS011;8287;51.644;8.494;2022-11-04T12:40:26;34.80;;;32.80;;
16354;SDS011;8287;51.644;8.494;2022-11-04T12:42:58;25.92;;;24.48;;
16354;SDS011;8287;51.644;8.494;2022-11-04T12:45:38;26.70;;;25.30;;
16354;SDS011;8287;51.644;8.494;2022-11-04T12:48:17;26.65;;;25.20;;
16354;SDS011;8287;51.644;8.494;2022-11-04T12:51:00;25.02;;;23.75;;
16354;SDS011;8287;51.644;8.494;2022-11-04T12:56:31;28.75;;;27.02;;
16354;SDS011;8287;51.644;8.494;2022-11-04T12:59:28;25.75;;;24.15;;
16354;SDS011;8287;51.644;8.494;2022-11-04T13:02:11;24.95;;;23.50;;
16354;SDS011;8287;51.644;8.494;2022-11-04T13:04:42;28.08;;;26.67;;
16354;SDS011;8287;51.644;8.494;2022-11-04T13:07:16;28.45;;;26.38;;
16354;SDS011;8287;51.644;8.494;2022-11-04T13:09:50;27.05;;;25.67;;
16354;SDS011;8287;51.644;8.494;2022-11-04T13:12:20;28.23;;;26.33;;
16354;SDS011;8287;51.644;8.494;2022-11-04T13:14:50;33.08;;;31.42;;
16354;SDS011;8287;51.644;8.494;2022-11-04T13:17:19;26.88;;;25.40;;
16354;SDS011;8287;51.644;8.494;2022-11-04T13:19:50;26.80;;;25.25;;
16354;SDS011;8287;51.644;8.494;2022-11-04T13:22:19;27.52;;;26.08;;
16354;SDS011;8287;51.644;8.494;2022-11-04T13:24:51;26.75;;;25.35;;
16354;SDS011;8287;51.644;8.494;2022-11-04T13:27:22;28.98;;;27.33;;
16354;SDS011;8287;51.644;8.494;2022-11-04T13:29:55;28.08;;;26.73;;
16354;SDS011;8287;51.644;8.494;2022-11-04T13:32:30;25.58;;;24.20;;
16354;SDS011;8287;51.644;8.494;2022-11-04T13:35:02;25.63;;;24.27;;
16354;SDS011;8287;51.644;8.494;2022-11-04T13:37:34;26.75;;;25.20;;
16354;SDS011;8287;51.644;8.494;2022-11-04T13:40:10;28.77;;;27.17;;
16354;SDS011;8287;51.644;8.494;2022-11-04T13:42:51;26.50;;;25.33;;
16354;SDS011;8287;51.644;8.494;2022-11-04T13:45:54;24.63;;;23.38;;
16354;SDS011;8287;51.644;8.494;2022-11-04T13:48:22;26.42;;;24.73;;
16354;SDS011;8287;51.644;8.494;2022-11-04T13:50:56;28.48;;;27.10;;
16354;SDS011;8287;51.644;8.494;2022-11-04T13:53:38;34.72;;;32.80;;
16354;SDS011;8287;51.644;8.494;2022-11-04T13:56:08;28.17;;;26.58;;
16354;SDS011;8287;51.644;8.494;2022-11-04T13:58:36;29.70;;;27.92;;
16354;SDS011;8287;51.644;8.494;2022-11-04T14:01:11;30.70;;;28.65;;
16354;SDS011;8287;51.644;8.494;2022-11-04T14:03:51;29.33;;;27.92;;
16354;SDS011;8287;51.644;8.494;2022-11-04T14:06:45;29.45;;;27.92;;
16354;SDS011;8287;51.644;8.494;2022-11-04T14:09:34;29.45;;;27.83;;
16354;SDS011;8287;51.644;8.494;2022-11-04T14:12:22;30.08;;;28.67;;
16354;SDS011;8287;51.644;8.494;2022-11-04T14:14:52;32.10;;;30.70;;
16354;SDS011;8287;51.644;8.494;2022-11-04T14:20:25;36.13;;;34.25;;
16354;SDS011;8287;51.644;8.494;2022-11-04T14:22:55;35.55;;;33.17;;
16354;SDS011;8287;51.644;8.494;2022-11-04T14:25:25;31.10;;;29.27;;
16354;SDS011;8287;51.644;8.494;2022-11-04T14:27:57;31.42;;;29.58;;
16354;SDS011;8287;51.644;8.494;2022-11-04T14:30:30;40.00;;;37.75;;
16354;SDS011;8287;51.644;8.494;2022-11-04T14:33:00;31.02;;;29.52;;
16354;SDS011;8287;51.644;8.494;2022-11-04T14:35:30;35.22;;;33.53;;
16354;SDS011;8287;51.644;8.494;2022-11-04T14:37:58;31.30;;;29.80;;
16354;SDS011;8287;51.644;8.494;2022-11-04T14:40:44;30.10;;;28.65;;
16354;SDS011;8287;51.644;8.494;2022-11-04T14:43:20;30.85;;;28.95;;
16354;SDS011;8287;51.644;8.494;2022-11-04T14:45:56;32.22;;;30.23;;
16354;SDS011;8287;51.644;8.494;2022-11-04T14:48:25;40.45;;;38.50;;
16354;SDS011;8287;51.644;8.494;2022-11-04T14:50:53;42.25;;;40.05;;
16354;SDS011;8287;51.644;8.494;2022-11-04T14:53:22;46.42;;;44.10;;
16354;SDS011;8287;51.644;8.494;2022-11-04T14:56:03;43.40;;;40.85;;
16354;SDS011;8287;51.644;8.494;2022-11-04T14:58:34;47.53;;;45.05;;
16354;SDS011;8287;51.644;8.494;2022-11-04T15:01:01;46.70;;;44.35;;
16354;SDS011;8287;51.644;8.494;2022-11-04T15:03:32;45.97;;;43.78;;
16354;SDS011;8287;51.644;8.494;2022-11-04T15:06:02;48.78;;;46.38;;
16354;SDS011;8287;51.644;8.494;2022-11-04T15:08:32;48.65;;;46.22;;